Time;durP1;ratioP1;P1;durP2;ratioP2;P2;SDS_P1;SDS_P2;PMS_P1;PMS_P2;Temp;Humidity;BMP_temperature;BMP_pressure;BME280_temperature;BME280_humidity;BME280_pressure;Samples;Min_cycle;Max_cycle;Signal;HPM_P1;HPM_P2
2023/03/27 00:01:18;;;;;;;7.70;1.38;;;6.70;99.90;;;;;;4957296;29;20494;-89
2023/03/27 00:03:47;;;;;;;13.20;1.67;;;7.20;99.90;;;;;;4957717;28;20034;-89
2023/03/27 00:06:18;;;;;;;4.43;1.27;;;7.20;99.90;;;;;;4957868;28;20027;-88
2023/03/27 00:08:49;;;;;;;14.85;1.40;;;7.20;99.90;;;;;;4956805;28;20027;-89
2023/03/27 00:11:15;;;;;;;8.95;1.50;;;6.60;99.90;;;;;;4957996;29;20038;-89
2023/03/27 00:13:43;;;;;;;17.05;1.60;;;6.60;99.90;;;;;;4957668;28;20028;-89
2023/03/27 00:16:10;;;;;;;5.57;0.98;;;7.50;99.90;;;;;;4957161;29;20110;-89
2023/03/27 00:18:36;;;;;;;8.02;1.40;;;7.70;99.90;;;;;;4957526;28;20031;-89
2023/03/27 00:21:05;;;;;;;6.97;2.08;;;6.10;99.90;;;;;;4957210;28;20027;-88
2023/03/27 00:23:31;;;;;;;7.63;1.60;;;6.60;99.90;;;;;;4956778;28;20027;-88
2023/03/27 00:26:07;;;;;;;7.75;1.63;;;7.20;99.90;;;;;;4957627;28;20436;-89
2023/03/27 00:28:34;;;;;;;9.88;1.60;;;6.30;99.90;;;;;;4956284;29;20040;-87
2023/03/27 00:30:59;;;;;;;4.18;1.90;;;6.30;99.90;;;;;;4957217;28;20023;-88
2023/03/27 00:33:26;;;;;;;5.25;1.40;;;6.30;99.90;;;;;;4957250;28;20032;-89
2023/03/27 00:35:52;;;;;;;7.95;1.17;;;6.90;99.90;;;;;;4956213;29;20372;-88
2023/03/27 00:38:18;;;;;;;6.90;1.65;;;7.10;99.90;;;;;;4968949;28;20035;-89
2023/03/27 00:40:45;;;;;;;7.20;1.23;;;6.20;99.90;;;;;;4979129;28;20054;-89
2023/03/27 00:43:41;;;;;;;9.90;2.13;;;6.30;99.90;;;;;;4964191;28;20042;-88
2023/03/27 00:46:14;;;;;;;9.77;1.50;;;6.30;99.90;;;;;;4955898;29;20039;-88
2023/03/27 00:48:42;;;;;;;6.80;1.75;;;6.20;99.90;;;;;;4957919;29;20078;-88
2023/03/27 00:51:08;;;;;;;7.63;1.42;;;6.20;99.90;;;;;;4957801;28;20034;-89
2023/03/27 00:53:34;;;;;;;11.40;1.83;;;6.10;99.90;;;;;;4957352;28;20061;-89
2023/03/27 00:56:03;;;;;;;9.32;1.50;;;6.10;99.90;;;;;;4957158;29;20035;-88
2023/03/27 00:58:45;;;;;;;9.10;1.50;;;6.60;99.90;;;;;;4956207;28;20058;-89
2023/03/27 01:01:14;;;;;;;7.03;1.20;;;6.00;99.90;;;;;;4956906;29;20083;-88
2023/03/27 01:03:42;;;;;;;12.60;1.40;;;6.10;99.90;;;;;;4956235;29;20082;-88
2023/03/27 01:06:12;;;;;;;8.85;1.50;;;6.10;99.90;;;;;;4956429;29;20027;-90
2023/03/27 01:11:31;;;;;;;10.00;1.52;;;6.00;99.90;;;;;;5455653;23;21611;-87
2023/03/27 01:14:20;;;;;;;9.80;1.50;;;6.50;99.90;;;;;;4937730;29;20051;-88
2023/03/27 01:17:19;;;;;;;7.90;1.30;;;5.90;99.90;;;;;;4937074;29;20045;-87
2023/03/27 01:20:12;;;;;;;6.90;1.60;;;6.00;99.90;;;;;;4950200;29;20106;-86
2023/03/27 01:22:53;;;;;;;7.65;1.40;;;5.90;99.90;;;;;;4938765;29;20027;-88
2023/03/27 01:25:19;;;;;;;;;;;5.90;99.90;;;;;;4936941;29;20034;-89
2023/03/27 01:28:16;;;;;;;6.25;1.25;;;5.90;99.90;;;;;;4936396;29;19907;-89
2023/03/27 01:30:52;;;;;;;9.18;1.40;;;5.80;99.90;;;;;;4936390;29;20416;-90
2023/03/27 01:33:45;;;;;;;3.53;0.85;;;5.80;99.90;;;;;;4936273;29;20091;-90
2023/03/27 01:36:24;;;;;;;6.68;1.40;;;5.80;99.90;;;;;;4937039;29;20066;-88
2023/03/27 01:39:24;;;;;;;7.00;1.42;;;5.80;99.90;;;;;;4935693;29;20043;-88
2023/03/27 01:42:30;;;;;;;5.73;1.07;;;5.70;99.90;;;;;;4937133;29;20109;-88
2023/03/27 01:45:10;;;;;;;2.85;1.00;;;5.70;99.90;;;;;;4898415;29;20031;-88
2023/03/27 01:47:51;;;;;;;4.72;0.90;;;6.50;99.90;;;;;;4935970;29;20023;-88
2023/03/27 01:50:29;;;;;;;9.55;1.65;;;5.50;99.90;;;;;;4936733;29;20028;-88
2023/03/27 01:53:04;;;;;;;6.28;0.80;;;5.50;99.90;;;;;;4935726;29;20035;-89
2023/03/27 01:55:35;;;;;;;8.32;1.40;;;5.50;99.90;;;;;;4936743;29;20056;-89
2023/03/27 01:58:06;;;;;;;5.80;1.00;;;6.10;99.90;;;;;;4936557;29;20042;-89
2023/03/27 02:00:34;;;;;;;5.43;1.15;;;6.00;99.90;;;;;;4935666;29;20058;-89
2023/03/27 02:03:09;;;;;;;11.13;1.30;;;5.50;99.90;;;;;;4953885;28;20031;-88
2023/03/27 02:05:41;;;;;;;3.60;1.35;;;5.50;99.90;;;;;;4938638;29;20032;-90
2023/03/27 02:08:16;;;;;;;2.90;1.00;;;5.50;99.90;;;;;;4936310;29;20023;-88
2023/03/27 02:10:47;;;;;;;6.38;1.20;;;5.50;99.90;;;;;;4936135;29;20440;-89
2023/03/27 02:13:25;;;;;;;4.03;1.10;;;5.50;99.90;;;;;;4935979;29;20070;-89
2023/03/27 02:15:52;;;;;;;6.85;1.27;;;6.00;99.90;;;;;;4935222;29;20510;-89
2023/03/27 02:18:27;;;;;;;4.93;1.35;;;5.90;99.90;;;;;;4936472;29;20032;-88
2023/03/27 02:20:52;;;;;;;6.57;1.58;;;6.10;99.90;;;;;;4936047;29;20024;-89
2023/03/27 02:23:18;;;;;;;4.72;1.27;;;6.00;99.90;;;;;;4935575;29;20028;-89
2023/03/27 02:25:51;;;;;;;3.30;1.20;;;6.30;99.90;;;;;;4936030;29;20056;-88
2023/03/27 02:28:47;;;;;;;6.38;1.30;;;5.50;99.90;;;;;;4935215;29;20078;-89
2023/03/27 02:31:39;;;;;;;2.88;0.80;;;5.50;99.90;;;;;;4936205;29;20472;-88
2023/03/27 02:34:39;;;;;;;5.28;1.13;;;5.50;99.90;;;;;;4935983;29;20392;-89
2023/03/27 02:37:40;;;;;;;5.20;1.07;;;5.60;99.90;;;;;;4935464;29;20046;-89
2023/03/27 02:40:22;;;;;;;8.98;0.93;;;5.60;99.90;;;;;;4900029;29;20036;-89
2023/03/27 02:43:06;;;;;;;5.65;1.15;;;6.30;99.90;;;;;;4935454;29;20059;-88
2023/03/27 02:45:50;;;;;;;3.97;1.00;;;5.20;99.90;;;;;;4935870;29;20472;-89
2023/03/27 02:48:24;;;;;;;3.92;1.00;;;5.70;99.90;;;;;;4936151;29;20055;-87
2023/03/27 02:50:54;;;;;;;9.98;1.10;;;5.80;99.90;;;;;;4934308;29;20071;-89
2023/03/27 02:53:27;;;;;;;4.32;1.08;;;5.90;99.90;;;;;;4935537;29;20110;-88
2023/03/27 02:55:56;;;;;;;8.10;1.23;;;5.90;99.90;;;;;;4935722;29;20365;-89
2023/03/27 02:58:59;;;;;;;7.63;1.17;;;6.50;99.90;;;;;;4935113;29;20031;-89
2023/03/27 03:01:26;;;;;;;5.28;1.20;;;5.90;99.90;;;;;;4905752;29;20044;-88
2023/03/27 03:04:19;;;;;;;7.32;1.50;;;6.10;99.90;;;;;;4915896;29;20024;-89
2023/03/27 03:06:51;;;;;;;5.75;1.40;;;6.80;99.90;;;;;;4916653;29;20036;-89
2023/03/27 03:09:17;;;;;;;13.20;1.52;;;6.60;99.90;;;;;;4917018;29;20103;-89
2023/03/27 03:12:06;;;;;;;4.28;1.50;;;6.90;99.90;;;;;;4915530;29;20047;-90
2023/03/27 03:14:38;;;;;;;8.45;1.35;;;5.20;99.90;;;;;;4916586;29;20107;-89
2023/03/27 03:17:10;;;;;;;6.88;1.40;;;5.60;99.90;;;;;;4921226;29;20109;-89
2023/03/27 03:19:36;;;;;;;10.40;1.40;;;6.30;99.90;;;;;;4932756;29;20020;-90
2023/03/27 03:22:16;;;;;;;8.02;1.52;;;6.20;99.90;;;;;;4918445;29;20072;-89
2023/03/27 03:24:48;;;;;;;9.40;1.80;;;6.00;99.90;;;;;;4921703;29;20016;-90
2023/03/27 03:27:19;;;;;;;4.25;1.55;;;5.90;99.90;;;;;;4930421;29;20040;-89
2023/03/27 03:29:46;;;;;;;6.18;1.40;;;5.90;99.90;;;;;;4917077;29;20025;-89
2023/03/27 03:32:22;;;;;;;8.85;1.50;;;6.40;99.90;;;;;;4916295;29;20032;-89
2023/03/27 03:34:47;;;;;;;4.90;1.33;;;6.70;99.90;;;;;;4916185;29;20027;-87
2023/03/27 03:37:27;;;;;;;9.93;1.67;;;6.00;99.90;;;;;;4916383;29;20116;-90
2023/03/27 03:39:56;;;;;;;4.03;1.33;;;5.80;99.90;;;;;;4916162;29;20024;-89
2023/03/27 03:42:27;;;;;;;5.43;1.50;;;5.90;99.90;;;;;;4916582;29;20032;-90
2023/03/27 03:44:53;;;;;;;8.70;1.30;;;6.40;99.90;;;;;;4916192;29;20024;-89
2023/03/27 03:47:21;;;;;;;3.70;1.48;;;7.20;99.90;;;;;;4915807;29;20024;-88
2023/03/27 03:49:47;;;;;;;8.07;1.75;;;5.80;99.90;;;;;;4916488;29;20040;-90
2023/03/27 03:52:12;;;;;;;8.77;1.52;;;6.50;99.90;;;;;;4916492;29;20032;-90
2023/03/27 03:54:39;;;;;;;2.90;0.77;;;6.40;99.90;;;;;;4915782;29;20377;-88
2023/03/27 03:57:04;;;;;;;4.68;0.80;;;6.60;99.90;;;;;;4916264;29;20181;-89
2023/03/27 03:59:35;;;;;;;1.50;0.55;;;6.50;99.90;;;;;;4915706;29;20515;-89
2023/03/27 04:02:01;;;;;;;3.90;0.80;;;5.90;99.90;;;;;;4917766;29;20032;-89
2023/03/27 04:04:27;;;;;;;4.78;0.70;;;5.80;99.90;;;;;;4919829;29;20485;-89
2023/03/27 04:06:58;;;;;;;1.92;0.75;;;5.70;99.90;;;;;;4918971;29;20040;-89
2023/03/27 04:09:24;;;;;;;5.85;0.93;;;6.60;99.90;;;;;;4919648;29;20055;-87
2023/03/27 04:11:49;;;;;;;5.00;0.75;;;6.30;99.90;;;;;;4919948;29;20065;-88
2023/03/27 04:14:15;;;;;;;3.58;0.90;;;5.80;99.90;;;;;;4919776;29;20087;-89
2023/03/27 04:16:46;;;;;;;3.00;0.70;;;6.30;99.90;;;;;;4920335;29;20040;-89
2023/03/27 04:19:21;;;;;;;4.75;0.70;;;6.50;99.90;;;;;;4935682;29;20020;-89
2023/03/27 04:21:47;;;;;;;4.65;0.88;;;6.60;99.90;;;;;;4956680;29;20387;-88
2023/03/27 04:24:17;;;;;;;5.75;0.85;;;5.70;99.90;;;;;;4956882;29;20027;-87
2023/03/27 04:26:42;;;;;;;8.20;0.75;;;5.80;99.90;;;;;;4957605;29;20379;-88
2023/03/27 04:29:09;;;;;;;3.85;0.75;;;5.40;99.90;;;;;;4956421;29;20027;-88
2023/03/27 04:31:46;;;;;;;5.95;1.20;;;5.70;99.90;;;;;;4945381;29;20114;-89
2023/03/27 04:34:11;;;;;;;8.98;1.27;;;5.30;99.90;;;;;;4938253;29;20034;-88
2023/03/27 04:36:38;;;;;;;6.78;1.10;;;5.70;99.90;;;;;;4937195;29;20035;-88
2023/03/27 04:39:09;;;;;;;9.05;1.05;;;5.90;99.90;;;;;;4937817;29;20028;-89
2023/03/27 04:41:35;;;;;;;4.85;0.95;;;6.10;99.90;;;;;;4937915;29;20166;-89
2023/03/27 04:44:00;;;;;;;7.63;1.00;;;7.00;99.90;;;;;;4937254;29;20511;-89
2023/03/27 04:46:32;;;;;;;3.53;0.75;;;5.70;99.90;;;;;;4937935;29;20024;-89
2023/03/27 04:49:00;;;;;;;5.57;1.10;;;6.40;99.90;;;;;;4949405;28;20023;-87
2023/03/27 04:51:26;;;;;;;5.95;0.90;;;5.70;99.90;;;;;;4946480;28;20071;-89
2023/03/27 04:53:55;;;;;;;6.75;1.02;;;6.00;99.90;;;;;;4936448;29;20036;-88
2023/03/27 04:56:32;;;;;;;2.28;0.68;;;5.60;99.90;;;;;;4936302;29;20027;-88
2023/03/27 04:58:58;;;;;;;2.90;0.80;;;6.10;99.90;;;;;;4936264;29;20514;-88
2023/03/27 05:01:29;;;;;;;6.65;0.88;;;6.20;99.90;;;;;;4936847;29;20043;-88
2023/03/27 05:03:55;;;;;;;3.63;0.95;;;5.10;99.90;;;;;;4936167;29;20027;-88
2023/03/27 05:06:22;;;;;;;5.88;0.90;;;5.20;99.90;;;;;;4936648;29;20028;-88
2023/03/27 05:08:49;;;;;;;9.52;1.30;;;5.60;99.90;;;;;;4936874;29;20035;-87
2023/03/27 05:11:17;;;;;;;5.90;1.17;;;5.30;99.90;;;;;;4936202;29;20031;-88
2023/03/27 05:13:42;;;;;;;6.90;1.25;;;5.30;99.90;;;;;;4917123;29;20485;-88
2023/03/27 05:16:08;;;;;;;3.72;1.20;;;5.20;99.90;;;;;;4927333;29;20015;-88
2023/03/27 05:18:37;;;;;;;10.90;1.10;;;4.20;99.90;;;;;;4926299;29;20035;-88
2023/03/27 05:21:03;;;;;;;4.82;1.20;;;5.10;99.90;;;;;;4918380;29;20028;-88
2023/03/27 05:23:35;;;;;;;9.73;1.48;;;4.10;99.90;;;;;;4917994;29;20024;-88
2023/03/27 05:26:12;;;;;;;3.28;1.35;;;4.90;99.90;;;;;;4912540;29;20474;-89
2023/03/27 05:28:38;;;;;;;12.25;1.25;;;4.30;99.90;;;;;;4917896;29;20468;-89
2023/03/27 05:31:04;;;;;;;11.27;1.05;;;4.20;99.90;;;;;;4916683;29;20059;-88
2023/03/27 05:33:31;;;;;;;1.60;0.90;;;5.00;99.90;;;;;;4917780;29;20561;-88
2023/03/27 05:35:56;;;;;;;7.43;1.40;;;5.90;99.90;;;;;;4917744;29;20029;-89
2023/03/27 05:38:46;;;;;;;3.30;1.33;;;4.50;99.90;;;;;;4917635;29;20485;-88
2023/03/27 05:41:27;;;;;;;5.50;1.15;;;4.50;99.90;;;;;;4918281;29;20032;-88
2023/03/27 05:43:53;;;;;;;;;;;5.40;99.90;;;;;;4933819;23;20058;-88
2023/03/27 05:46:19;;;;;;;5.78;1.00;;;5.20;99.90;;;;;;4974921;28;19910;-89
2023/03/27 05:49:05;;;;;;;6.80;1.52;;;4.80;99.90;;;;;;4975150;28;20143;-89
2023/03/27 05:51:36;;;;;;;4.47;1.30;;;5.20;99.90;;;;;;4974987;28;20022;-88
2023/03/27 05:54:02;;;;;;;5.90;0.98;;;5.20;99.90;;;;;;4974574;28;20449;-88
2023/03/27 05:56:43;;;;;;;2.92;0.77;;;4.90;99.90;;;;;;4975091;28;20027;-88
2023/03/27 05:59:09;;;;;;;;;;;5.00;99.90;;;;;;4974138;28;20070;-88
2023/03/27 06:01:34;;;;;;;2.03;0.98;;;5.70;99.90;;;;;;4974920;28;20003;-86
2023/03/27 06:04:21;;;;;;;8.63;1.10;;;5.50;99.90;;;;;;4975166;28;20037;-89
2023/03/27 06:07:01;;;;;;;4.38;1.23;;;5.00;99.90;;;;;;4974213;28;20027;-88
2023/03/27 06:09:26;;;;;;;2.53;0.65;;;5.70;99.90;;;;;;4975753;28;20109;-88
2023/03/27 06:11:52;;;;;;;4.60;1.42;;;5.10;99.90;;;;;;4981649;28;20035;-89
2023/03/27 06:14:32;;;;;;;4.15;1.20;;;6.10;99.90;;;;;;4986360;28;20078;-89
2023/03/27 06:17:07;;;;;;;2.40;1.08;;;5.70;99.90;;;;;;4975602;28;20114;-89
2023/03/27 06:30:23;;;;;;;7.68;1.27;;;5.20;99.90;;;;;;5052618;23;20054;-92
2023/03/27 06:33:26;;;;;;;8.25;1.30;;;5.30;99.90;;;;;;4935823;29;20032;-89
2023/03/27 06:36:07;;;;;;;10.05;1.75;;;4.80;99.90;;;;;;4933373;29;20050;-88
2023/03/27 06:38:53;;;;;;;5.32;1.30;;;5.30;99.90;;;;;;4944182;29;20035;-89
2023/03/27 06:42:05;;;;;;;9.68;1.27;;;5.30;99.90;;;;;;4947914;29;20023;-89
2023/03/27 06:44:31;;;;;;;6.75;2.33;;;5.30;99.90;;;;;;4939943;29;20075;-90
2023/03/27 06:47:02;;;;;;;5.82;1.77;;;6.00;99.90;;;;;;4912554;29;20039;-88
2023/03/27 06:50:00;;;;;;;13.07;1.70;;;5.40;99.90;;;;;;4939662;29;20039;-88
2023/03/27 06:52:44;;;;;;;15.88;2.25;;;5.00;99.90;;;;;;4914691;29;20424;-86
2023/03/27 06:55:32;;;;;;;6.50;1.85;;;5.20;99.90;;;;;;4935960;29;20519;-87
2023/03/27 06:58:01;;;;;;;9.52;1.55;;;5.50;99.90;;;;;;4945241;29;20403;-89
2023/03/27 07:00:30;;;;;;;8.63;2.20;;;6.00;99.90;;;;;;4931702;29;20104;-90
2023/03/27 07:03:21;;;;;;;7.35;2.33;;;6.60;99.90;;;;;;4932248;29;20394;-89
2023/03/27 07:05:50;;;;;;;11.20;2.53;;;5.00;99.90;;;;;;4935921;29;20119;-90
2023/03/27 07:08:30;;;;;;;9.82;1.88;;;5.30;99.90;;;;;;4934730;29;20039;-88
2023/03/27 07:11:18;;;;;;;;;;;6.10;99.90;;;;;;4931993;29;20028;-89
2023/03/27 07:13:49;;;;;;;5.00;1.27;;;5.60;99.90;;;;;;4946043;29;19991;-90
2023/03/27 07:16:21;;;;;;;6.45;1.52;;;6.30;99.90;;;;;;4941715;29;20028;-88
2023/03/27 07:18:58;;;;;;;13.48;1.50;;;6.50;99.90;;;;;;4933239;29;20050;-90
2023/03/27 07:21:27;;;;;;;5.20;1.33;;;6.20;99.90;;;;;;4935340;29;20028;-92
2023/03/27 07:23:55;;;;;;;6.28;1.50;;;6.20;99.90;;;;;;4935600;29;20044;-93
2023/03/27 07:43:17;;;;;;;8.85;1.60;;;6.00;99.90;;;;;;4959145;29;20055;-92
2023/03/27 07:45:53;;;;;;;4.40;0.88;;;6.80;99.90;;;;;;4942351;29;20059;-90
2023/03/27 07:51:30;;;;;;;3.47;0.85;;;6.10;99.90;;;;;;4942200;29;20031;-92
2023/03/27 07:54:03;;;;;;;2.45;0.95;;;6.60;99.90;;;;;;4958347;23;20067;-90
2023/03/27 07:56:32;;;;;;;3.47;0.88;;;6.50;99.90;;;;;;4946984;29;20079;-91
2023/03/27 07:58:58;;;;;;;8.23;1.17;;;6.60;99.90;;;;;;4946820;29;20499;-89
2023/03/27 08:04:55;;;;;;;;;;;;;;;;;;;;;
2023/03/27 08:07:39;;;;;;;7.82;0.90;;;6.00;99.90;;;;;;4824347;29;20137;-89
2023/03/27 08:10:06;;;;;;;2.15;0.80;;;6.90;99.90;;;;;;4864522;29;20040;-90
2023/03/27 08:12:33;;;;;;;9.50;1.35;;;6.00;99.90;;;;;;4937024;29;20038;-88
2023/03/27 08:15:06;;;;;;;10.27;1.20;;;6.70;99.90;;;;;;4937347;29;20019;-90
2023/03/27 08:17:32;;;;;;;6.82;1.13;;;5.50;99.90;;;;;;4918195;29;20044;-91
2023/03/27 08:20:00;;;;;;;5.07;1.67;;;6.40;99.90;;;;;;4919726;29;20076;-89
2023/03/27 08:22:28;;;;;;;9.60;1.10;;;6.10;99.90;;;;;;4920270;29;20039;-90
2023/03/27 08:25:00;;;;;;;6.05;1.23;;;5.40;99.90;;;;;;4919858;29;20095;-90
2023/03/27 08:27:30;;;;;;;5.13;1.15;;;5.70;99.90;;;;;;4918886;29;20024;-91
2023/03/27 08:30:00;;;;;;;8.52;1.20;;;6.30;99.90;;;;;;4919431;29;20116;-91
2023/03/27 08:32:45;;;;;;;7.97;0.80;;;6.60;99.90;;;;;;4918818;29;20042;-89
2023/03/27 08:35:11;;;;;;;3.22;0.93;;;4.90;99.90;;;;;;4918511;29;20032;-90
2023/03/27 08:37:36;;;;;;;17.80;2.47;;;5.40;99.90;;;;;;4918822;29;20076;-91
2023/03/27 08:40:07;;;;;;;7.20;0.88;;;6.30;99.90;;;;;;4918801;29;20388;-90
2023/03/27 08:42:49;;;;;;;8.55;1.27;;;5.60;99.90;;;;;;4898083;29;20028;-90
2023/03/27 08:45:26;;;;;;;6.05;1.00;;;6.40;99.90;;;;;;4920071;29;20048;-91
2023/03/27 08:48:20;;;;;;;8.27;1.13;;;5.80;99.90;;;;;;4918404;29;20034;-91
2023/03/27 08:51:02;;;;;;;2.47;1.10;;;5.90;99.90;;;;;;4919846;29;20528;-90
2023/03/27 09:00:26;;;;;;;4.63;1.02;;;5.00;99.90;;;;;;4938851;29;20047;-92
2023/03/27 09:02:57;;;;;;;9.38;1.27;;;5.10;99.90;;;;;;4923715;29;20047;-92
2023/03/27 09:05:52;;;;;;;4.88;1.15;;;4.90;99.90;;;;;;4920127;29;20055;-91
2023/03/27 09:08:51;;;;;;;13.13;1.35;;;5.90;99.90;;;;;;4921174;29;20032;-91
2023/03/27 09:11:44;;;;;;;5.40;1.30;;;5.40;99.90;;;;;;4937305;29;20481;-91
2023/03/27 09:14:48;;;;;;;8.20;1.48;;;5.80;99.90;;;;;;4921581;29;20032;-91
2023/03/27 09:17:54;;;;;;;6.03;1.45;;;6.60;99.90;;;;;;4919144;29;20068;-90
2023/03/27 09:20:54;;;;;;;;;;;;;;;;;;;;;
2023/03/27 09:23:23;;;;;;;4.78;0.95;;;6.20;99.90;;;;;;4883216;29;20058;-91
2023/03/27 09:25:55;;;;;;;7.70;1.02;;;6.50;99.90;;;;;;4920305;29;20028;-91
2023/03/27 09:29:10;;;;;;;4.68;1.00;;;7.30;99.90;;;;;;4919417;29;20028;-92
2023/03/27 09:32:07;;;;;;;5.30;0.80;;;6.60;99.90;;;;;;4919018;29;20028;-90
2023/03/27 09:34:38;;;;;;;6.85;1.08;;;6.70;99.90;;;;;;4900375;29;20122;-91
2023/03/27 09:37:26;;;;;;;13.57;2.90;;;7.50;99.90;;;;;;4918849;29;20040;-91
2023/03/27 09:39:58;;;;;;;9.00;1.30;;;7.20;99.90;;;;;;4919216;29;20036;-91
2023/03/27 09:42:37;;;;;;;6.28;1.35;;;7.30;99.90;;;;;;4919159;29;20031;-92
2023/03/27 09:45:06;;;;;;;5.63;1.00;;;6.80;99.90;;;;;;4918870;29;20032;-89
2023/03/27 09:48:01;;;;;;;5.97;0.98;;;6.10;99.90;;;;;;4918781;29;20048;-90
2023/03/27 09:50:43;;;;;;;2.00;0.68;;;5.20;99.90;;;;;;4919118;29;20068;-89
2023/03/27 09:53:18;;;;;;;1.45;0.43;;;6.00;99.90;;;;;;4960311;23;20047;-90
2023/03/27 09:55:53;;;;;;;0.45;0.40;;;6.00;99.90;;;;;;4957655;29;20031;-90
2023/03/27 09:58:27;;;;;;;2.08;0.68;;;6.50;99.90;;;;;;4956536;29;20039;-90
2023/03/27 10:01:33;;;;;;;5.88;0.70;;;5.90;99.90;;;;;;4956809;28;20082;-90
2023/03/27 10:04:13;;;;;;;3.72;0.80;;;6.90;99.90;;;;;;4879975;29;20126;-91
2023/03/27 10:07:06;;;;;;;3.58;1.00;;;6.10;99.90;;;;;;4879141;29;20505;-89
2023/03/27 10:10:12;;;;;;;;;;;;;;;;;;;;;
2023/03/27 10:12:54;;;;;;;4.03;0.95;;;6.90;99.90;;;;;;4875938;29;20048;-89
2023/03/27 10:15:37;;;;;;;9.48;0.93;;;6.50;99.90;;;;;;4879163;29;20462;-91
2023/03/27 10:18:25;;;;;;;4.93;1.50;;;6.30;99.90;;;;;;4878935;29;20053;-89
2023/03/27 10:20:58;;;;;;;1.45;0.40;;;5.50;99.90;;;;;;4878646;29;20033;-90
2023/03/27 10:23:29;;;;;;;6.53;0.63;;;6.80;99.90;;;;;;4886839;29;20029;-91
2023/03/27 10:26:12;;;;;;;1.15;0.50;;;7.50;99.90;;;;;;4897284;29;20033;-90
2023/03/27 10:29:00;;;;;;;4.50;0.82;;;7.80;99.90;;;;;;4885356;29;20036;-92
2023/03/27 10:31:36;;;;;;;3.47;0.65;;;6.90;99.90;;;;;;4879259;29;20059;-91
2023/03/27 10:34:05;;;;;;;2.22;0.70;;;7.20;99.90;;;;;;4878394;29;20389;-90
2023/03/27 10:36:37;;;;;;;6.50;0.90;;;7.00;99.90;;;;;;4943512;23;20059;-91
2023/03/27 10:39:34;;;;;;;2.35;0.93;;;6.40;99.90;;;;;;4937166;29;20148;-90
2023/03/27 10:42:17;;;;;;;7.68;1.52;;;6.30;99.90;;;;;;4937571;29;20028;-90
2023/03/27 10:44:46;;;;;;;3.90;0.90;;;6.60;99.90;;;;;;4938177;29;20031;-91
2023/03/27 10:47:26;;;;;;;5.65;1.65;;;7.20;99.90;;;;;;4938886;29;20028;-92
2023/03/27 10:50:02;;;;;;;;;;;6.70;99.90;;;;;;4940256;29;20023;-90
2023/03/27 10:52:58;;;;;;;4.40;1.75;;;6.80;99.90;;;;;;4942369;29;19930;-91
2023/03/27 10:55:55;;;;;;;5.22;0.77;;;6.70;99.90;;;;;;4950312;29;20047;-91
2023/03/27 10:58:53;;;;;;;7.05;1.17;;;6.50;99.90;;;;;;4950400;29;20063;-91
2023/03/27 11:01:46;;;;;;;9.98;1.45;;;6.60;99.90;;;;;;4937643;29;20066;-92
2023/03/27 11:04:37;;;;;;;3.90;1.00;;;5.80;99.90;;;;;;4941098;29;20023;-90
2023/03/27 11:07:40;;;;;;;4.68;1.45;;;7.00;99.90;;;;;;4952813;29;20027;-89
2023/03/27 11:19:30;;;;;;;7.53;0.50;;;7.10;99.90;;;;;;4916183;29;20115;-89
2023/03/27 11:22:12;;;;;;;4.28;1.38;;;7.70;99.90;;;;;;4833063;29;20086;-91
2023/03/27 11:25:10;;;;;;;5.05;0.90;;;7.00;99.90;;;;;;4915386;29;20032;-92
2023/03/27 11:28:19;;;;;;;6.63;0.93;;;7.00;99.90;;;;;;4915382;29;20020;-91
2023/03/27 11:31:45;;;;;;;9.02;1.10;;;6.80;99.90;;;;;;4916403;29;20040;-92
2023/03/27 11:34:35;;;;;;;;;;;;;;;;;;;;;
2023/03/27 11:37:19;;;;;;;4.15;0.70;;;8.00;99.90;;;;;;4858223;29;20400;-91
2023/03/27 11:40:24;;;;;;;9.02;1.10;;;7.30;99.90;;;;;;4928716;29;20111;-91
2023/03/27 11:42:56;;;;;;;7.70;1.15;;;7.40;99.90;;;;;;4930068;29;20047;-90
2023/03/27 11:45:51;;;;;;;6.50;0.70;;;8.00;99.90;;;;;;4949903;28;20019;-89
2023/03/27 11:48:57;;;;;;;6.97;0.82;;;8.20;99.90;;;;;;4941790;29;20028;-90
2023/03/27 11:52:01;;;;;;;4.78;0.65;;;7.50;99.90;;;;;;4934501;29;20031;-91
2023/03/27 11:55:09;;;;;;;2.92;0.70;;;7.30;99.90;;;;;;4935612;29;20067;-91
2023/03/27 11:58:04;;;;;;;4.15;0.93;;;7.00;99.90;;;;;;4933953;29;20590;-91
2023/03/27 12:00:51;;;;;;;3.53;0.93;;;6.90;99.90;;;;;;4936379;29;20039;-91
2023/03/27 12:04:14;;;;;;;4.95;1.15;;;6.20;99.90;;;;;;4936301;29;20028;-91
2023/03/27 12:07:32;;;;;;;3.85;1.02;;;6.80;99.90;;;;;;4877194;29;20093;-91
2023/03/27 12:13:47;;;;;;;7.18;1.42;;;6.60;99.90;;;;;;4935526;29;20079;-91
2023/03/27 12:16:34;;;;;;;6.30;1.45;;;7.10;99.90;;;;;;4936063;29;20051;-90
2023/03/27 12:19:41;;;;;;;7.82;1.05;;;7.30;99.90;;;;;;4938658;29;20047;-91
2023/03/27 12:22:53;;;;;;;5.55;0.77;;;7.30;99.90;;;;;;4937097;29;20119;-91
2023/03/27 12:25:52;;;;;;;7.22;0.90;;;7.50;99.90;;;;;;4937995;29;20043;-91
2023/03/27 12:28:41;;;;;;;9.90;2.17;;;7.60;99.90;;;;;;4882272;29;20129;-91
2023/03/27 12:31:19;;;;;;;4.43;0.90;;;8.40;99.90;;;;;;4940435;29;20082;-91
2023/03/27 12:34:28;;;;;;;4.15;0.80;;;7.60;99.90;;;;;;4953540;29;20094;-90
2023/03/27 12:37:05;;;;;;;6.47;1.33;;;7.80;99.90;;;;;;4958239;29;20531;-90
2023/03/27 12:40:18;;;;;;;7.95;1.25;;;8.50;99.90;;;;;;5020152;23;20043;-91
2023/03/27 12:42:53;;;;;;;4.65;0.90;;;8.00;99.90;;;;;;4868022;29;20093;-90
2023/03/27 12:45:31;;;;;;;6.60;1.27;;;7.90;99.90;;;;;;4939298;29;20047;-91
2023/03/27 12:48:20;;;;;;;7.93;1.63;;;8.00;99.90;;;;;;4938107;29;20042;-91
2023/03/27 12:51:36;;;;;;;3.83;0.98;;;7.80;99.90;;;;;;4940364;29;20122;-93
2023/03/27 12:54:32;;;;;;;7.35;1.92;;;7.80;99.90;;;;;;4961587;23;20423;-90
2023/03/27 12:57:19;;;;;;;5.85;1.42;;;7.90;99.90;;;;;;4938652;29;20035;-89
2023/03/27 12:59:58;;;;;;;3.90;0.82;;;8.40;99.90;;;;;;4938592;29;20095;-90
2023/03/27 13:02:45;;;;;;;5.03;1.27;;;8.60;99.90;;;;;;4938651;29;20361;-90
2023/03/27 13:05:37;;;;;;;7.80;1.92;;;8.00;99.90;;;;;;4936783;29;20054;-90
2023/03/27 13:08:27;;;;;;;8.23;1.27;;;8.00;99.90;;;;;;4948739;28;20046;-90
2023/03/27 13:11:36;;;;;;;4.47;1.50;;;8.10;99.90;;;;;;4946099;29;20024;-92
2023/03/27 13:14:29;;;;;;;4.82;1.00;;;8.00;99.90;;;;;;4936098;29;20090;-88
2023/03/27 13:17:21;;;;;;;1.83;0.93;;;8.00;99.90;;;;;;4934843;29;20028;-90
2023/03/27 13:20:06;;;;;;;2.75;1.00;;;8.10;99.90;;;;;;4934753;29;20510;-90
2023/03/27 13:22:44;;;;;;;5.30;1.20;;;8.60;99.90;;;;;;4937499;29;20027;-91
2023/03/27 13:25:47;;;;;;;5.05;0.98;;;8.20;99.90;;;;;;4938343;29;20505;-90
2023/03/27 13:28:32;;;;;;;3.75;1.00;;;8.20;99.90;;;;;;4916915;29;20043;-91
2023/03/27 13:31:00;;;;;;;4.25;1.13;;;8.20;99.90;;;;;;4937293;29;20039;-90
2023/03/27 13:33:28;;;;;;;5.70;1.40;;;8.20;99.90;;;;;;4937968;29;20391;-91
2023/03/27 13:35:57;;;;;;;8.00;1.65;;;8.40;99.90;;;;;;4937464;29;20024;-90
2023/03/27 13:38:44;;;;;;;5.80;1.08;;;8.40;99.90;;;;;;4937108;29;20083;-90
2023/03/27 13:41:43;;;;;;;3.83;1.70;;;8.30;99.90;;;;;;4937408;29;20499;-90
2023/03/27 13:44:14;;;;;;;6.25;1.17;;;7.90;99.90;;;;;;4936835;29;20035;-89
2023/03/27 13:46:51;;;;;;;;;;;7.30;99.90;;;;;;4938158;29;20043;-90
2023/03/27 13:49:22;;;;;;;1.95;0.90;;;6.80;99.90;;;;;;4937367;29;19929;-90
2023/03/27 13:51:51;;;;;;;2.72;0.82;;;6.50;99.90;;;;;;4936838;29;20543;-90
2023/03/27 13:54:34;;;;;;;9.10;1.70;;;6.30;99.90;;;;;;4937535;29;20364;-92
2023/03/27 13:57:28;;;;;;;7.00;1.20;;;6.20;99.90;;;;;;4937581;29;20036;-91
2023/03/27 14:00:22;;;;;;;10.45;1.52;;;6.20;99.90;;;;;;4936904;29;20027;-91
2023/03/27 14:03:06;;;;;;;8.95;2.05;;;6.30;99.90;;;;;;4940407;29;20377;-91
2023/03/27 14:06:03;;;;;;;7.93;1.48;;;6.40;99.90;;;;;;4940697;29;20024;-91
2023/03/27 14:08:59;;;;;;;4.82;1.42;;;6.40;99.90;;;;;;4944406;29;20023;-89
2023/03/27 14:11:52;;;;;;;10.23;1.30;;;6.60;99.90;;;;;;4945358;29;20373;-89
2023/03/27 14:14:49;;;;;;;7.68;1.13;;;6.70;99.90;;;;;;4949489;29;20035;-90
2023/03/27 14:17:23;;;;;;;10.75;1.40;;;6.80;99.90;;;;;;4963421;29;20042;-92
2023/03/27 14:20:00;;;;;;;9.65;1.27;;;7.00;99.90;;;;;;4963504;29;20019;-92
2023/03/27 14:22:33;;;;;;;6.20;1.30;;;7.10;99.90;;;;;;4956572;29;20023;-90
2023/03/27 14:25:04;;;;;;;1.35;0.60;;;7.20;99.90;;;;;;4955781;29;20110;-91
2023/03/27 14:27:41;;;;;;;;;;;7.40;99.90;;;;;;4945702;23;20161;-91
2023/03/27 14:30:21;;;;;;;3.42;1.30;;;7.00;99.90;;;;;;4937157;29;19922;-90
2023/03/27 14:32:48;;;;;;;4.13;1.38;;;7.50;99.90;;;;;;4936153;29;20039;-89
2023/03/27 14:35:36;;;;;;;8.23;1.27;;;8.10;99.90;;;;;;4936731;29;20036;-92
2023/03/27 14:38:23;;;;;;;5.97;0.90;;;7.40;99.90;;;;;;4936818;29;20032;-91
2023/03/27 14:40:51;;;;;;;6.65;1.10;;;7.40;99.90;;;;;;4936490;29;20072;-91
2023/03/27 14:43:18;;;;;;;4.60;0.77;;;7.90;99.90;;;;;;4936665;29;20038;-91
2023/03/27 14:46:01;;;;;;;6.70;1.45;;;7.50;99.90;;;;;;4936854;29;20111;-90
2023/03/27 14:48:38;;;;;;;6.50;0.95;;;7.80;99.90;;;;;;4936640;29;20051;-91
2023/03/27 14:51:12;;;;;;;8.25;1.38;;;7.30;99.90;;;;;;4937506;29;20028;-91
2023/03/27 14:54:00;;;;;;;4.85;1.33;;;8.30;99.90;;;;;;4938043;29;20055;-90
2023/03/27 14:56:46;;;;;;;4.38;1.15;;;7.60;99.90;;;;;;4936330;29;20024;-89
2023/03/27 14:59:21;;;;;;;4.10;1.00;;;8.30;99.90;;;;;;4935603;29;20086;-90
2023/03/27 15:01:58;;;;;;;2.42;0.73;;;8.10;99.90;;;;;;4935484;29;20110;-89